createdAt,value
2022-09-26T00:00:06.322Z,1.9
2022-09-26T00:05:06.074Z,2.7
2022-09-26T00:15:05.647Z,3.5
2022-09-26T00:20:05.412Z,4.0
2022-09-26T00:25:05.285Z,3.1
2022-09-26T00:30:05.010Z,3.5
2022-09-26T00:35:05.334Z,2.4
2022-09-26T00:40:04.781Z,2.0
2022-09-26T00:45:05.521Z,0.7
2022-09-26T00:50:04.461Z,3.0
2022-09-26T00:55:04.205Z,1.7
2022-09-26T01:05:03.913Z,1.3
2022-09-26T01:15:03.448Z,1.2
2022-09-26T01:20:03.229Z,1.6
2022-09-26T01:25:03.045Z,2.5
2022-09-26T01:30:02.874Z,3.0
2022-09-26T01:35:02.624Z,1.2
2022-09-26T01:40:02.396Z,4.5
2022-09-26T01:45:02.361Z,2.3
2022-09-26T01:50:09.627Z,1.0
2022-09-26T01:55:01.703Z,3.2
2022-09-26T02:00:01.518Z,1.1
2022-09-26T02:05:01.253Z,1.2
2022-09-26T02:15:00.887Z,2.7
2022-09-26T02:20:00.622Z,3.2
2022-09-26T02:25:00.486Z,4.1
2022-09-26T02:30:00.221Z,2.2
2022-09-26T02:34:59.921Z,1.4
2022-09-26T02:44:59.572Z,0.7
2022-09-26T02:49:59.253Z,0.9
2022-09-26T02:59:58.927Z,1.4
2022-09-26T03:04:58.622Z,0.6
2022-09-26T03:09:58.417Z,0.6
2022-09-26T03:14:58.897Z,0.8
2022-09-26T03:24:57.668Z,0.8
2022-09-26T03:29:57.388Z,0.8
2022-09-26T03:34:57.241Z,0.5
2022-09-26T03:39:56.873Z,0.5
2022-09-26T03:44:56.633Z,3.1
2022-09-26T03:49:56.339Z,0.6
2022-09-26T04:04:55.595Z,0.9
2022-09-26T04:24:55.771Z,1.8
2022-09-26T04:29:54.252Z,0.7
2022-09-26T04:34:54.047Z,0.5
2022-09-26T04:39:53.793Z,1.1
2022-09-26T04:44:53.640Z,2.9
2022-09-26T04:49:53.352Z,2.9
2022-09-26T04:54:53.154Z,2.5
2022-09-26T04:59:52.908Z,0.6
2022-09-26T05:04:52.811Z,0.7
2022-09-26T05:09:52.509Z,0.6
2022-09-26T05:24:51.937Z,0.9
2022-09-26T05:29:51.578Z,0.8
2022-09-26T05:40:15.689Z,0.8
2022-09-26T05:44:50.948Z,1.7
2022-09-26T05:49:50.741Z,2.6
2022-09-26T05:59:50.355Z,1.0
2022-09-26T06:04:51.604Z,2.6
2022-09-26T06:09:52.265Z,1.5
2022-09-26T06:14:49.656Z,1.4
2022-09-26T06:15:12.335Z,1.4
2022-09-26T06:24:49.081Z,3.7
2022-09-26T06:29:48.801Z,1.3
2022-09-26T06:30:36.324Z,1.3
2022-09-26T06:34:48.591Z,2.6
2022-09-26T06:39:48.401Z,3.1
2022-09-26T06:44:48.196Z,1.4
2022-09-26T06:47:32.297Z,1.4
2022-09-26T06:48:18.881Z,1.4
2022-09-26T06:54:47.822Z,2.0
2022-09-26T07:02:21.568Z,4.2
2022-09-26T07:04:49.560Z,1.2
2022-09-26T07:09:47.053Z,2.2
2022-09-26T07:19:48.014Z,3.5
2022-09-26T07:29:46.098Z,8.8
2022-09-26T07:34:45.809Z,3.3
2022-09-26T07:39:46.724Z,2.7
2022-09-26T07:49:45.099Z,7.0
2022-09-26T07:54:44.843Z,3.2
2022-09-26T07:59:20.639Z,3.2
2022-09-26T07:59:48.964Z,3.3
2022-09-26T08:03:37.713Z,3.3
2022-09-26T08:04:44.442Z,2.7
2022-09-26T08:09:44.222Z,8.4
2022-09-26T08:13:25.352Z,8.4
2022-09-26T08:14:45.862Z,10.4
2022-09-26T08:16:03.084Z,10.4
2022-09-26T08:19:48.237Z,9.1
2022-09-26T08:24:43.555Z,9.1
2022-09-26T08:29:43.393Z,5.8
2022-09-26T08:34:43.167Z,7.1
2022-09-26T08:39:43.019Z,7.1
2022-09-26T08:44:46.405Z,6.3
2022-09-26T08:49:42.562Z,8.5
2022-09-26T08:54:42.340Z,7.0
2022-09-26T08:59:42.083Z,6.9
2022-09-26T09:04:41.914Z,6.0
2022-09-26T09:09:41.691Z,9.6
2022-09-26T09:14:41.682Z,4.2
2022-09-26T09:19:41.379Z,7.7
2022-09-26T09:24:41.237Z,5.7
2022-09-26T09:29:41.049Z,5.7
2022-09-26T09:34:40.970Z,5.3
2022-09-26T09:39:42.266Z,7.4
2022-09-26T09:44:45.656Z,7.6
2022-09-26T09:49:40.668Z,4.7
2022-09-26T09:54:40.271Z,11.2
2022-09-26T09:59:40.183Z,10.4
2022-09-26T10:09:40.724Z,8.6
2022-09-26T10:14:39.718Z,10.4
2022-09-26T10:19:41.918Z,9.0
2022-09-26T10:24:39.333Z,8.3
2022-09-26T10:29:39.327Z,11.9
2022-09-26T10:34:41.124Z,9.9
2022-09-26T10:39:38.940Z,8.7
2022-09-26T10:44:38.779Z,8.1
2022-09-26T10:49:38.675Z,6.4
2022-09-26T10:54:38.548Z,9.2
2022-09-26T10:59:38.482Z,4.6
2022-09-26T11:04:38.291Z,4.6
2022-09-26T11:09:38.410Z,3.0
2022-09-26T11:14:42.485Z,3.6
2022-09-26T11:19:39.912Z,4.3
2022-09-26T11:24:37.875Z,7.4
2022-09-26T11:29:37.555Z,3.2
2022-09-26T11:34:37.486Z,4.4
2022-09-26T11:39:40.015Z,7.4
2022-09-26T11:41:24.591Z,7.4
2022-09-26T11:44:48.464Z,3.6
2022-09-26T11:49:37.374Z,5.1
2022-09-26T11:59:37.273Z,4.4
2022-09-26T12:04:37.194Z,3.6
2022-09-26T12:14:38.204Z,4.9
2022-09-26T12:18:47.016Z,1.6
2022-09-26T12:19:36.827Z,1.6
2022-09-26T12:20:54.901Z,4.8
2022-09-26T12:21:53.949Z,4.8
2022-09-26T12:23:56.995Z,4.8
2022-09-26T12:24:36.749Z,5.9
2022-09-26T12:30:14.724Z,2.2
2022-09-26T12:34:41.109Z,4.7
2022-09-26T12:44:42.577Z,4.4
2022-09-26T12:49:04.206Z,4.4
2022-09-26T12:49:36.598Z,7.0
2022-09-26T12:49:55.532Z,7.0
2022-09-26T12:54:38.180Z,2.0
2022-09-26T12:58:39.580Z,2.0
2022-09-26T12:59:39.057Z,6.0
2022-09-26T13:04:36.843Z,4.1
2022-09-26T13:09:36.906Z,5.9
2022-09-26T13:14:36.257Z,1.9
2022-09-26T13:19:36.177Z,1.9
2022-09-26T13:23:39.540Z,1.7
2022-09-26T13:24:36.075Z,6.8
2022-09-26T13:29:38.106Z,4.0
2022-09-26T13:39:35.004Z,6.2
2022-09-26T13:39:35.820Z,6.2
2022-09-26T13:43:59.151Z,7.2
2022-09-26T13:44:46.238Z,7.2
2022-09-26T13:45:15.632Z,4.6
2022-09-26T13:49:38.143Z,1.4
2022-09-26T13:59:37.271Z,3.5
2022-09-26T14:04:36.586Z,7.9
2022-09-26T14:07:44.392Z,7.9
2022-09-26T14:08:42.354Z,7.9
2022-09-26T14:09:36.107Z,5.8
2022-09-26T14:19:25.202Z,4.2
2022-09-26T14:19:36.802Z,4.2
2022-09-26T14:20:53.937Z,4.5
2022-09-26T14:21:28.440Z,4.5
2022-09-26T14:24:35.924Z,6.2
2022-09-26T14:28:40.257Z,6.2
2022-09-26T14:29:35.749Z,6.2
2022-09-26T14:34:35.793Z,7.4
2022-09-26T14:39:35.575Z,7.4
2022-09-26T14:44:37.380Z,4.3
2022-09-26T14:49:23.013Z,4.3
2022-09-26T14:49:35.331Z,2.9
2022-09-26T14:54:35.421Z,5.5
2022-09-26T14:57:39.047Z,5.5
2022-09-26T14:59:35.360Z,5.5
2022-09-26T15:04:35.466Z,3.8
2022-09-26T15:08:30.487Z,3.8
2022-09-26T15:09:35.513Z,8.5
2022-09-26T15:14:35.558Z,8.5
2022-09-26T15:17:42.592Z,2.8
2022-09-26T15:19:35.644Z,3.5
2022-09-26T15:23:11.103Z,3.5
2022-09-26T15:24:35.566Z,3.5
2022-09-26T15:34:35.687Z,3.9
2022-09-26T15:39:35.516Z,3.9
2022-09-26T15:44:35.468Z,3.4
2022-09-26T15:49:35.365Z,2.0
2022-09-26T15:52:02.720Z,2.0
2022-09-26T15:54:37.172Z,4.1
2022-09-26T15:59:40.080Z,5.0
2022-09-26T16:04:36.969Z,5.5
2022-09-26T16:09:35.044Z,2.4
2022-09-26T16:19:35.359Z,2.6
2022-09-26T16:22:35.483Z,2.6
2022-09-26T16:24:36.069Z,2.6
2022-09-26T16:29:36.505Z,2.6
2022-09-26T16:34:34.749Z,2.6
2022-09-26T16:39:34.459Z,4.1
2022-09-26T16:44:36.445Z,5.2
2022-09-26T16:49:34.280Z,1.4
2022-09-26T16:54:34.517Z,2.5
2022-09-26T16:59:34.289Z,0.4
2022-09-26T17:00:54.056Z,0.4
2022-09-26T17:04:34.024Z,0.5
2022-09-26T17:06:00.970Z,0.5
2022-09-26T17:09:33.827Z,2.8
2022-09-26T17:14:40.091Z,2.0
2022-09-26T17:19:33.374Z,2.0
2022-09-26T17:24:35.448Z,2.1
2022-09-26T17:34:33.021Z,1.2
2022-09-26T17:39:32.855Z,2.5
2022-09-26T17:44:32.809Z,1.3
2022-09-26T17:45:48.785Z,1.3
2022-09-26T17:51:26.282Z,1.2
2022-09-26T17:54:33.685Z,1.2
2022-09-26T17:59:32.162Z,0.6
2022-09-26T18:09:31.681Z,0.9
2022-09-26T18:14:32.628Z,0.9
2022-09-26T18:19:31.184Z,0.5
2022-09-26T18:34:35.116Z,1.2
2022-09-26T18:39:34.526Z,0.6
2022-09-26T18:44:29.960Z,0.6
2022-09-26T18:49:35.943Z,2.2
2022-09-26T18:59:29.370Z,1.2
2022-09-26T19:04:28.933Z,1.2
2022-09-26T19:09:28.793Z,2.4
2022-09-26T19:14:28.433Z,2.5
2022-09-26T19:19:23.980Z,2.5
2022-09-26T19:19:29.023Z,3.9
2022-09-26T19:23:07.684Z,3.9
2022-09-26T19:24:28.877Z,1.3
2022-09-26T19:27:44.100Z,1.3
2022-09-26T19:29:37.935Z,1.3
2022-09-26T19:36:34.984Z,2.0
2022-09-26T19:46:21.724Z,19.2
2022-09-26T19:49:26.583Z,247.5
2022-09-26T19:54:26.362Z,216.9
2022-09-26T19:59:28.078Z,219.3
2022-09-26T20:02:53.000Z,219.3
2022-09-26T20:04:27.253Z,315.9
2022-09-26T20:09:25.572Z,205.9
2022-09-26T20:14:27.313Z,177.0
2022-09-26T20:19:25.043Z,177.0
2022-09-26T20:24:24.777Z,134.7
2022-09-26T20:29:24.626Z,98.0
2022-09-26T20:34:26.258Z,31.3
2022-09-26T20:39:24.145Z,52.7
2022-09-26T20:44:23.858Z,62.7
2022-09-26T20:49:23.591Z,16.8
2022-09-26T20:54:23.298Z,22.0
2022-09-26T20:59:23.061Z,22.0
2022-09-26T21:04:22.756Z,22.9
2022-09-26T21:08:02.298Z,22.9
2022-09-26T21:09:22.400Z,15.5
2022-09-26T21:14:22.434Z,9.7
2022-09-26T21:17:07.410Z,9.7
2022-09-26T21:19:22.084Z,10.0
2022-09-26T21:24:25.109Z,10.0
2022-09-26T21:29:21.597Z,5.6
2022-09-26T21:34:21.445Z,12.5
2022-09-26T21:39:25.515Z,3.7
2022-09-26T21:39:53.166Z,3.7
2022-09-26T21:44:33.182Z,2.9
2022-09-26T21:49:20.791Z,4.6
2022-09-26T21:54:20.371Z,4.6
2022-09-26T21:59:20.095Z,7.2
2022-09-26T22:04:19.721Z,6.0
2022-09-26T22:09:19.497Z,7.9
2022-09-26T22:14:21.311Z,7.9
2022-09-26T22:19:18.975Z,3.6
2022-09-26T22:24:18.701Z,7.7
2022-09-26T22:29:18.378Z,4.2
2022-09-26T22:34:18.065Z,4.2
2022-09-26T22:39:17.924Z,5.8
2022-09-26T22:44:17.602Z,5.0
2022-09-26T22:49:17.398Z,7.9
2022-09-26T22:54:18.523Z,3.3
2022-09-26T22:59:16.883Z,3.1
2022-09-26T23:09:16.456Z,2.4
2022-09-26T23:14:16.044Z,3.8
2022-09-26T23:24:15.477Z,0.8
2022-09-26T23:29:15.376Z,9.5
2022-09-26T23:34:14.970Z,1.9
2022-09-26T23:39:14.854Z,2.6
2022-09-26T23:44:14.639Z,4.0
2022-09-26T23:59:13.660Z,3.4
